sensor_id;sensor_type;location;lat;lon;timestamp;pressure;altitude;pressure_sealevel;temperature;humidity
49297;BME280;35163;48.878;18.040;2023-02-18T00:00:26;98494.47;;;8.60;100.00
49297;BME280;35163;48.878;18.040;2023-02-18T00:02:53;98490.91;;;8.64;100.00
49297;BME280;35163;48.878;18.040;2023-02-18T00:05:21;98480.53;;;8.67;100.00
49297;BME280;35163;48.878;18.040;2023-02-18T00:07:48;98486.44;;;8.72;100.00
49297;BME280;35163;48.878;18.040;2023-02-18T00:10:15;98481.22;;;8.75;100.00
49297;BME280;35163;48.878;18.040;2023-02-18T00:12:42;98493.97;;;8.82;100.00
49297;BME280;35163;48.878;18.040;2023-02-18T00:15:09;98488.66;;;8.88;99.66
49297;BME280;35163;48.878;18.040;2023-02-18T00:17:36;98494.63;;;8.90;99.01
49297;BME280;35163;48.878;18.040;2023-02-18T00:20:05;98480.84;;;8.91;99.78
49297;BME280;35163;48.878;18.040;2023-02-18T00:22:32;98483.34;;;8.96;99.09
49297;BME280;35163;48.878;18.040;2023-02-18T00:24:58;98480.59;;;9.02;98.94
49297;BME280;35163;48.878;18.040;2023-02-18T00:27:25;98489.94;;;9.08;98.93
49297;BME280;35163;48.878;18.040;2023-02-18T00:29:51;98494.06;;;9.14;98.88
49297;BME280;35163;48.878;18.040;2023-02-18T00:32:18;98493.09;;;9.19;97.89
49297;BME280;35163;48.878;18.040;2023-02-18T00:34:45;98487.81;;;9.24;97.80
49297;BME280;35163;48.878;18.040;2023-02-18T00:37:12;98499.81;;;9.27;97.58
49297;BME280;35163;48.878;18.040;2023-02-18T00:39:38;98486.72;;;9.33;97.47
49297;BME280;35163;48.878;18.040;2023-02-18T00:42:05;98491.78;;;9.38;97.20
49297;BME280;35163;48.878;18.040;2023-02-18T00:44:31;98502.81;;;9.43;96.95
49297;BME280;35163;48.878;18.040;2023-02-18T00:46:58;98487.25;;;9.47;96.63
49297;BME280;35163;48.878;18.040;2023-02-18T00:49:25;98480.22;;;9.53;96.05
49297;BME280;35163;48.878;18.040;2023-02-18T00:51:51;98485.34;;;9.54;96.39
49297;BME280;35163;48.878;18.040;2023-02-18T00:54:18;98482.69;;;9.57;96.19
49297;BME280;35163;48.878;18.040;2023-02-18T00:56:45;98485.13;;;9.62;96.13
49297;BME280;35163;48.878;18.040;2023-02-18T00:59:11;98484.19;;;9.66;95.21
49297;BME280;35163;48.878;18.040;2023-02-18T01:01:38;98479.81;;;9.68;95.28
49297;BME280;35163;48.878;18.040;2023-02-18T01:04:05;98476.34;;;9.69;95.71
49297;BME280;35163;48.878;18.040;2023-02-18T01:06:31;98480.50;;;9.75;94.98
49297;BME280;35163;48.878;18.040;2023-02-18T01:08:58;98480.38;;;9.80;94.86
49297;BME280;35163;48.878;18.040;2023-02-18T01:11:25;98467.38;;;9.83;94.41
49297;BME280;35163;48.878;18.040;2023-02-18T01:13:51;98469.81;;;9.88;94.48
49297;BME280;35163;48.878;18.040;2023-02-18T01:16:18;98477.47;;;9.92;93.60
49297;BME280;35163;48.878;18.040;2023-02-18T01:18:45;98473.97;;;9.93;93.38
49297;BME280;35163;48.878;18.040;2023-02-18T01:21:12;98476.41;;;9.98;93.06
49297;BME280;35163;48.878;18.040;2023-02-18T01:23:40;98478.09;;;10.01;92.82
49297;BME280;35163;48.878;18.040;2023-02-18T01:26:08;98479.63;;;10.06;93.01
49297;BME280;35163;48.878;18.040;2023-02-18T01:28:35;98475.91;;;10.17;91.66
49297;BME280;35163;48.878;18.040;2023-02-18T01:31:11;98483.53;;;10.21;91.47
49297;BME280;35163;48.878;18.040;2023-02-18T01:33:41;98486.91;;;10.24;90.76
49297;BME280;35163;48.878;18.040;2023-02-18T01:36:09;98493.78;;;10.25;90.73
49297;BME280;35163;48.878;18.040;2023-02-18T01:38:37;98497.94;;;10.29;90.58
49297;BME280;35163;48.878;18.040;2023-02-18T01:41:03;98500.44;;;10.32;90.53
49297;BME280;35163;48.878;18.040;2023-02-18T01:43:31;98507.22;;;10.36;90.46
49297;BME280;35163;48.878;18.040;2023-02-18T01:45:59;98508.91;;;10.37;90.54
49297;BME280;35163;48.878;18.040;2023-02-18T01:48:33;98519.19;;;10.40;90.67
49297;BME280;35163;48.878;18.040;2023-02-18T01:51:12;98531.28;;;10.38;91.92
49297;BME280;35163;48.878;18.040;2023-02-18T01:53:46;98542.50;;;10.37;94.49
49297;BME280;35163;48.878;18.040;2023-02-18T01:56:25;98545.91;;;10.39;96.80
49297;BME280;35163;48.878;18.040;2023-02-18T01:58:54;98556.25;;;10.39;98.19
49297;BME280;35163;48.878;18.040;2023-02-18T02:01:22;98550.19;;;10.40;98.91
49297;BME280;35163;48.878;18.040;2023-02-18T02:03:51;98552.06;;;10.35;99.17
49297;BME280;35163;48.878;18.040;2023-02-18T02:06:20;98557.22;;;10.35;98.71
49297;BME280;35163;48.878;18.040;2023-02-18T02:08:48;98557.16;;;10.38;98.40
49297;BME280;35163;48.878;18.040;2023-02-18T02:11:40;98551.97;;;10.38;98.26
49297;BME280;35163;48.878;18.040;2023-02-18T02:16:57;98541.00;;;10.30;97.03
49297;BME280;35163;48.878;18.040;2023-02-18T02:20:01;98554.09;;;10.24;95.69
49297;BME280;35163;48.878;18.040;2023-02-18T02:22:46;98547.47;;;10.13;95.72
49297;BME280;35163;48.878;18.040;2023-02-18T02:39:50;98561.44;;;10.07;95.38
49297;BME280;35163;48.878;18.040;2023-02-18T02:42:55;98570.81;;;10.10;95.35
49297;BME280;35163;48.878;18.040;2023-02-18T02:45:42;98575.16;;;10.09;94.31
49297;BME280;35163;48.878;18.040;2023-02-18T02:51:04;98576.00;;;10.10;93.57
49297;BME280;35163;48.878;18.040;2023-02-18T02:53:34;98569.28;;;10.03;93.21
49297;BME280;35163;48.878;18.040;2023-02-18T02:56:01;98575.25;;;10.05;93.01
49297;BME280;35163;48.878;18.040;2023-02-18T02:58:28;98588.03;;;10.11;91.74
49297;BME280;35163;48.878;18.040;2023-02-18T03:09:09;98588.91;;;10.10;90.02
49297;BME280;35163;48.878;18.040;2023-02-18T03:12:05;98585.28;;;10.17;90.09
49297;BME280;35163;48.878;18.040;2023-02-18T03:14:43;98576.84;;;10.11;90.08
49297;BME280;35163;48.878;18.040;2023-02-18T03:17:29;98579.38;;;10.12;90.42
49297;BME280;35163;48.878;18.040;2023-02-18T03:20:15;98587.13;;;10.12;89.85
49297;BME280;35163;48.878;18.040;2023-02-18T03:22:47;98584.59;;;10.11;88.29
49297;BME280;35163;48.878;18.040;2023-02-18T03:25:16;98587.03;;;10.15;87.83
49297;BME280;35163;48.878;18.040;2023-02-18T03:27:51;98580.09;;;10.17;87.43
49297;BME280;35163;48.878;18.040;2023-02-18T03:30:43;98587.81;;;10.19;87.32
49297;BME280;35163;48.878;18.040;2023-02-18T03:33:11;98579.28;;;10.15;87.47
49297;BME280;35163;48.878;18.040;2023-02-18T03:35:41;98578.44;;;10.16;87.40
49297;BME280;35163;48.878;18.040;2023-02-18T03:38:14;98581.97;;;10.12;87.65
49297;BME280;35163;48.878;18.040;2023-02-18T03:40:42;98587.13;;;10.12;87.63
49297;BME280;35163;48.878;18.040;2023-02-18T03:43:09;98606.06;;;10.13;87.33
49297;BME280;35163;48.878;18.040;2023-02-18T03:45:35;98599.09;;;10.15;87.36
49297;BME280;35163;48.878;18.040;2023-02-18T03:48:02;98613.84;;;10.13;87.03
49297;BME280;35163;48.878;18.040;2023-02-18T03:50:29;98610.38;;;10.12;87.06
49297;BME280;35163;48.878;18.040;2023-02-18T03:52:55;98589.75;;;10.11;86.62
49297;BME280;35163;48.878;18.040;2023-02-18T03:55:22;98592.47;;;10.06;87.49
49297;BME280;35163;48.878;18.040;2023-02-18T03:57:49;98600.19;;;10.07;87.28
49297;BME280;35163;48.878;18.040;2023-02-18T04:00:16;98590.69;;;10.08;87.00
49297;BME280;35163;48.878;18.040;2023-02-18T04:02:43;98597.56;;;10.09;87.00
49297;BME280;35163;48.878;18.040;2023-02-18T04:05:09;98588.91;;;10.10;86.79
49297;BME280;35163;48.878;18.040;2023-02-18T04:07:36;98595.63;;;10.17;85.75
49297;BME280;35163;48.878;18.040;2023-02-18T04:10:04;98592.97;;;10.19;86.02
49297;BME280;35163;48.878;18.040;2023-02-18T04:12:31;98594.78;;;10.15;85.70
49297;BME280;35163;48.878;18.040;2023-02-18T04:14:58;98594.72;;;10.18;85.40
49297;BME280;35163;48.878;18.040;2023-02-18T04:17:25;98599.84;;;10.20;84.94
49297;BME280;35163;48.878;18.040;2023-02-18T04:19:51;98597.28;;;10.18;85.39
49297;BME280;35163;48.878;18.040;2023-02-18T04:22:18;98581.78;;;10.18;85.11
49297;BME280;35163;48.878;18.040;2023-02-18T04:24:45;98580.88;;;10.21;83.61
49297;BME280;35163;48.878;18.040;2023-02-18T04:27:11;98588.41;;;10.29;83.36
49297;BME280;35163;48.878;18.040;2023-02-18T04:29:38;98583.22;;;10.29;82.41
49297;BME280;35163;48.878;18.040;2023-02-18T04:32:04;98592.69;;;10.30;81.52
49297;BME280;35163;48.878;18.040;2023-02-18T04:34:31;98586.63;;;10.31;82.47
49297;BME280;35163;48.878;18.040;2023-02-18T04:36:58;98603.03;;;10.30;82.52
49297;BME280;35163;48.878;18.040;2023-02-18T04:39:24;98594.47;;;10.28;82.38
49297;BME280;35163;48.878;18.040;2023-02-18T04:41:51;98604.81;;;10.28;82.42
49297;BME280;35163;48.878;18.040;2023-02-18T04:44:18;98603.88;;;10.30;82.79
49297;BME280;35163;48.878;18.040;2023-02-18T04:46:44;98621.19;;;10.27;82.71
49297;BME280;35163;48.878;18.040;2023-02-18T04:49:11;98623.06;;;10.21;84.24
49297;BME280;35163;48.878;18.040;2023-02-18T04:51:37;98617.91;;;10.20;85.80
49297;BME280;35163;48.878;18.040;2023-02-18T04:54:06;98617.97;;;10.18;87.04
49297;BME280;35163;48.878;18.040;2023-02-18T04:56:33;98628.53;;;10.11;88.42
49297;BME280;35163;48.878;18.040;2023-02-18T04:59:00;98611.28;;;10.11;87.88
49297;BME280;35163;48.878;18.040;2023-02-18T05:01:26;98618.88;;;10.17;86.99
49297;BME280;35163;48.878;18.040;2023-02-18T05:03:53;98606.81;;;10.18;85.92
49297;BME280;35163;48.878;18.040;2023-02-18T05:06:19;98616.25;;;10.19;83.74
49297;BME280;35163;48.878;18.040;2023-02-18T05:08:46;98623.06;;;10.21;83.55
49297;BME280;35163;48.878;18.040;2023-02-18T05:11:13;98623.81;;;10.25;83.66
49297;BME280;35163;48.878;18.040;2023-02-18T05:13:39;98619.69;;;10.19;82.73
49297;BME280;35163;48.878;18.040;2023-02-18T05:16:06;98624.00;;;10.19;81.87
49297;BME280;35163;48.878;18.040;2023-02-18T05:18:33;98630.03;;;10.19;82.23
49297;BME280;35163;48.878;18.040;2023-02-18T05:20:59;98625.69;;;10.20;82.75
49297;BME280;35163;48.878;18.040;2023-02-18T05:23:26;98629.13;;;10.20;82.74
49297;BME280;35163;48.878;18.040;2023-02-18T05:25:53;98633.47;;;10.18;82.81
49297;BME280;35163;48.878;18.040;2023-02-18T05:28:21;98629.25;;;10.16;83.13
49297;BME280;35163;48.878;18.040;2023-02-18T05:30:47;98623.25;;;10.14;83.51
49297;BME280;35163;48.878;18.040;2023-02-18T05:33:14;98630.97;;;10.15;83.44
49297;BME280;35163;48.878;18.040;2023-02-18T05:35:41;98631.88;;;10.14;84.36
49297;BME280;35163;48.878;18.040;2023-02-18T05:38:07;98638.72;;;10.15;84.20
49297;BME280;35163;48.878;18.040;2023-02-18T05:40:35;98638.81;;;10.12;84.86
49297;BME280;35163;48.878;18.040;2023-02-18T05:43:01;98632.78;;;10.12;85.56
49297;BME280;35163;48.878;18.040;2023-02-18T05:45:28;98632.91;;;10.07;86.14
49297;BME280;35163;48.878;18.040;2023-02-18T05:47:54;98645.84;;;10.07;86.61
49297;BME280;35163;48.878;18.040;2023-02-18T05:50:21;98636.44;;;10.03;87.20
49297;BME280;35163;48.878;18.040;2023-02-18T05:52:48;98627.97;;;9.99;87.11
49297;BME280;35163;48.878;18.040;2023-02-18T05:55:15;98625.34;;;10.01;88.14
49297;BME280;35163;48.878;18.040;2023-02-18T05:57:41;98621.81;;;10.03;88.04
49297;BME280;35163;48.878;18.040;2023-02-18T06:00:08;98632.13;;;10.03;88.10
49297;BME280;35163;48.878;18.040;2023-02-18T06:02:36;98632.31;;;9.97;88.98
49297;BME280;35163;48.878;18.040;2023-02-18T06:05:04;98638.28;;;9.99;88.77
49297;BME280;35163;48.878;18.040;2023-02-18T06:07:31;98638.22;;;10.02;88.13
49297;BME280;35163;48.878;18.040;2023-02-18T06:09:57;98635.75;;;9.98;88.38
49297;BME280;35163;48.878;18.040;2023-02-18T06:12:24;98640.75;;;10.04;88.07
49297;BME280;35163;48.878;18.040;2023-02-18T06:14:51;98632.34;;;9.95;88.80
49297;BME280;35163;48.878;18.040;2023-02-18T06:17:17;98640.91;;;9.98;87.98
49297;BME280;35163;48.878;18.040;2023-02-18T06:19:44;98640.91;;;9.98;87.74
49297;BME280;35163;48.878;18.040;2023-02-18T06:22:11;98638.38;;;9.94;87.78
49297;BME280;35163;48.878;18.040;2023-02-18T06:24:38;98629.88;;;9.91;88.78
49297;BME280;35163;48.878;18.040;2023-02-18T06:27:04;98621.38;;;9.87;88.34
49297;BME280;35163;48.878;18.040;2023-02-18T06:29:31;98619.63;;;9.88;88.70
49297;BME280;35163;48.878;18.040;2023-02-18T06:31:58;98615.38;;;9.85;89.44
49297;BME280;35163;48.878;18.040;2023-02-18T06:34:25;98622.94;;;9.93;88.24
49297;BME280;35163;48.878;18.040;2023-02-18T06:36:52;98623.69;;;9.96;88.10
49297;BME280;35163;48.878;18.040;2023-02-18T06:39:19;98615.81;;;10.01;87.98
49297;BME280;35163;48.878;18.040;2023-02-18T06:41:45;98615.00;;;10.01;87.84
49297;BME280;35163;48.878;18.040;2023-02-18T06:44:12;98620.94;;;10.04;87.40
49297;BME280;35163;48.878;18.040;2023-02-18T06:46:40;98623.34;;;10.11;86.80
49297;BME280;35163;48.878;18.040;2023-02-18T06:49:07;98623.13;;;10.18;86.08
49297;BME280;35163;48.878;18.040;2023-02-18T06:51:34;98628.44;;;10.14;86.37
49297;BME280;35163;48.878;18.040;2023-02-18T06:54:00;98633.56;;;10.15;86.74
49297;BME280;35163;48.878;18.040;2023-02-18T06:56:27;98637.13;;;10.11;87.27
49297;BME280;35163;48.878;18.040;2023-02-18T06:58:56;98642.28;;;10.11;87.85
49297;BME280;35163;48.878;18.040;2023-02-18T07:01:22;98641.44;;;10.11;88.09
49297;BME280;35163;48.878;18.040;2023-02-18T07:03:49;98642.34;;;10.08;88.48
49297;BME280;35163;48.878;18.040;2023-02-18T07:06:16;98654.41;;;10.09;88.51
49297;BME280;35163;48.878;18.040;2023-02-18T07:08:42;98650.09;;;10.09;88.20
49297;BME280;35163;48.878;18.040;2023-02-18T07:11:12;98642.34;;;10.08;88.32
49297;BME280;35163;48.878;18.040;2023-02-18T07:13:38;98647.50;;;10.08;88.74
49297;BME280;35163;48.878;18.040;2023-02-18T07:16:05;98649.16;;;10.12;88.19
49297;BME280;35163;48.878;18.040;2023-02-18T07:18:33;98654.31;;;10.12;87.58
49297;BME280;35163;48.878;18.040;2023-02-18T07:20:59;98644.88;;;10.11;88.36
49297;BME280;35163;48.878;18.040;2023-02-18T07:23:26;98652.78;;;10.05;88.61
49297;BME280;35163;48.878;18.040;2023-02-18T07:26:08;98653.84;;;9.98;89.05
49297;BME280;35163;48.878;18.040;2023-02-18T07:28:36;98655.59;;;9.95;89.08
49297;BME280;35163;48.878;18.040;2023-02-18T07:31:03;98661.81;;;9.88;88.36
49297;BME280;35163;48.878;18.040;2023-02-18T07:33:31;98666.09;;;9.88;88.85
49297;BME280;35163;48.878;18.040;2023-02-18T07:35:59;98661.06;;;9.83;89.23
49297;BME280;35163;48.878;18.040;2023-02-18T07:38:26;98667.41;;;9.69;89.03
49297;BME280;35163;48.878;18.040;2023-02-18T07:40:54;98655.50;;;9.64;89.76
49297;BME280;35163;48.878;18.040;2023-02-18T07:43:21;98638.88;;;9.74;89.28
49297;BME280;35163;48.878;18.040;2023-02-18T07:45:48;98653.53;;;9.73;89.23
49297;BME280;35163;48.878;18.040;2023-02-18T07:48:15;98656.09;;;9.73;88.97
49297;BME280;35163;48.878;18.040;2023-02-18T07:50:43;98657.25;;;9.62;89.89
49297;BME280;35163;48.878;18.040;2023-02-18T07:53:12;98655.41;;;9.68;88.86
49297;BME280;35163;48.878;18.040;2023-02-18T07:55:39;98651.03;;;9.70;88.27
49297;BME280;35163;48.878;18.040;2023-02-18T07:58:19;98658.00;;;9.67;88.88
49297;BME280;35163;48.878;18.040;2023-02-18T08:00:46;98665.06;;;9.58;89.51
49297;BME280;35163;48.878;18.040;2023-02-18T08:03:15;98654.13;;;9.48;90.03
49297;BME280;35163;48.878;18.040;2023-02-18T08:05:43;98634.09;;;9.58;89.57
49297;BME280;35163;48.878;18.040;2023-02-18T08:08:15;98627.88;;;9.67;88.68
49297;BME280;35163;48.878;18.040;2023-02-18T08:10:42;98649.25;;;9.72;88.68
49297;BME280;35163;48.878;18.040;2023-02-18T08:13:09;98652.13;;;9.60;89.47
49297;BME280;35163;48.878;18.040;2023-02-18T08:15:39;98652.34;;;9.51;90.15
49297;BME280;35163;48.878;18.040;2023-02-18T08:18:08;98633.31;;;9.55;89.72
49297;BME280;35163;48.878;18.040;2023-02-18T08:20:39;98657.28;;;9.60;89.55
49297;BME280;35163;48.878;18.040;2023-02-18T08:23:06;98662.53;;;9.57;89.91
49297;BME280;35163;48.878;18.040;2023-02-18T08:25:33;98663.47;;;9.54;90.16
49297;BME280;35163;48.878;18.040;2023-02-18T08:27:59;98655.75;;;9.53;90.58
49297;BME280;35163;48.878;18.040;2023-02-18T08:30:26;98646.31;;;9.52;90.77
49297;BME280;35163;48.878;18.040;2023-02-18T08:32:53;98643.72;;;9.52;90.60
49297;BME280;35163;48.878;18.040;2023-02-18T08:35:20;98658.25;;;9.56;90.76
49297;BME280;35163;48.878;18.040;2023-02-18T08:37:46;98653.22;;;9.51;90.98
49297;BME280;35163;48.878;18.040;2023-02-18T08:40:20;98657.41;;;9.55;91.55
49297;BME280;35163;48.878;18.040;2023-02-18T08:42:47;98665.25;;;9.51;90.52
49297;BME280;35163;48.878;18.040;2023-02-18T08:45:19;98664.34;;;9.53;90.33
49297;BME280;35163;48.878;18.040;2023-02-18T08:47:46;98668.59;;;9.56;90.60
49297;BME280;35163;48.878;18.040;2023-02-18T08:50:33;98667.81;;;9.52;90.52
49297;BME280;35163;48.878;18.040;2023-02-18T08:53:00;98663.38;;;9.57;90.33
49297;BME280;35163;48.878;18.040;2023-02-18T08:55:30;98669.38;;;9.59;89.87
49297;BME280;35163;48.878;18.040;2023-02-18T08:57:56;98661.63;;;9.59;89.69
49297;BME280;35163;48.878;18.040;2023-02-18T09:00:26;98655.34;;;9.70;89.27
49297;BME280;35163;48.878;18.040;2023-02-18T09:02:55;98657.13;;;9.68;89.39
49297;BME280;35163;48.878;18.040;2023-02-18T09:05:22;98656.19;;;9.70;89.52
49297;BME280;35163;48.878;18.040;2023-02-18T09:07:48;98659.63;;;9.71;89.36
49297;BME280;35163;48.878;18.040;2023-02-18T09:10:15;98657.78;;;9.76;89.40
49297;BME280;35163;48.878;18.040;2023-02-18T09:12:42;98654.25;;;9.79;88.99
49297;BME280;35163;48.878;18.040;2023-02-18T09:15:09;98655.06;;;9.81;89.90
49297;BME280;35163;48.878;18.040;2023-02-18T09:17:35;98654.16;;;9.83;89.42
49297;BME280;35163;48.878;18.040;2023-02-18T09:20:03;98662.75;;;9.84;90.01
49297;BME280;35163;48.878;18.040;2023-02-18T09:22:30;98653.06;;;9.94;89.21
49297;BME280;35163;48.878;18.040;2023-02-18T09:24:58;98655.72;;;9.89;89.55
49297;BME280;35163;48.878;18.040;2023-02-18T09:27:24;98642.78;;;9.92;88.83
49297;BME280;35163;48.878;18.040;2023-02-18T09:29:51;98637.34;;;10.02;89.12
49297;BME280;35163;48.878;18.040;2023-02-18T09:32:18;98625.13;;;10.08;89.17
49297;BME280;35163;48.878;18.040;2023-02-18T09:34:59;98629.19;;;10.17;88.36
49297;BME280;35163;48.878;18.040;2023-02-18T09:37:25;98628.16;;;10.25;88.62
49297;BME280;35163;48.878;18.040;2023-02-18T09:39:52;98622.00;;;10.29;88.78
49297;BME280;35163;48.878;18.040;2023-02-18T09:42:23;98622.63;;;10.37;88.00
49297;BME280;35163;48.878;18.040;2023-02-18T09:44:55;98621.69;;;10.41;87.67
49297;BME280;35163;48.878;18.040;2023-02-18T09:47:36;98622.41;;;10.47;87.64
49297;BME280;35163;48.878;18.040;2023-02-18T09:50:29;98611.91;;;10.53;87.47
49297;BME280;35163;48.878;18.040;2023-02-18T09:52:52;98616.97;;;10.56;86.80
49297;BME280;35163;48.878;18.040;2023-02-18T09:57:53;98615.06;;;10.64;86.07
49297;BME280;35163;48.878;18.040;2023-02-18T10:00:24;98608.00;;;10.69;86.35
49297;BME280;35163;48.878;18.040;2023-02-18T10:02:55;98611.41;;;10.70;86.74
49297;BME280;35163;48.878;18.040;2023-02-18T10:05:25;98616.47;;;10.75;86.02
49297;BME280;35163;48.878;18.040;2023-02-18T10:07:57;98605.19;;;10.77;85.80
49297;BME280;35163;48.878;18.040;2023-02-18T10:10:38;98592.81;;;10.87;85.04
49297;BME280;35163;48.878;18.040;2023-02-18T10:13:21;98593.44;;;10.96;84.68
49297;BME280;35163;48.878;18.040;2023-02-18T10:15:49;98589.81;;;11.01;84.23
49297;BME280;35163;48.878;18.040;2023-02-18T10:18:40;98575.75;;;11.10;83.04
49297;BME280;35163;48.878;18.040;2023-02-18T10:21:11;98583.31;;;11.16;83.67
49297;BME280;35163;48.878;18.040;2023-02-18T10:23:53;98578.75;;;11.25;83.17
49297;BME280;35163;48.878;18.040;2023-02-18T10:26:23;98568.22;;;11.31;82.66
49297;BME280;35163;48.878;18.040;2023-02-18T10:28:49;98583.63;;;11.34;82.12
49297;BME280;35163;48.878;18.040;2023-02-18T10:31:24;98582.44;;;11.45;83.13
49297;BME280;35163;48.878;18.040;2023-02-18T10:36:48;98564.97;;;11.51;82.07
49297;BME280;35163;48.878;18.040;2023-02-18T10:50:32;98547.81;;;11.74;82.05
49297;BME280;35163;48.878;18.040;2023-02-18T10:53:27;98535.56;;;11.79;81.55
49297;BME280;35163;48.878;18.040;2023-02-18T10:55:55;98528.19;;;11.93;81.62
49297;BME280;35163;48.878;18.040;2023-02-18T10:58:28;98524.56;;;11.97;80.24
49297;BME280;35163;48.878;18.040;2023-02-18T11:00:56;98519.06;;;12.06;80.67
49297;BME280;35163;48.878;18.040;2023-02-18T11:03:39;98514.44;;;12.16;80.37
49297;BME280;35163;48.878;18.040;2023-02-18T11:06:14;98513.38;;;12.22;79.05
49297;BME280;35163;48.878;18.040;2023-02-18T11:08:42;98509.81;;;12.24;77.82
49297;BME280;35163;48.878;18.040;2023-02-18T11:11:52;98508.81;;;12.29;77.98
49297;BME280;35163;48.878;18.040;2023-02-18T11:14:00;98509.66;;;12.29;77.86
49297;BME280;35163;48.878;18.040;2023-02-18T11:16:48;98511.44;;;12.27;77.76
49297;BME280;35163;48.878;18.040;2023-02-18T11:19:32;98511.34;;;12.30;78.06
49297;BME280;35163;48.878;18.040;2023-02-18T11:22:34;98509.75;;;12.26;78.17
49297;BME280;35163;48.878;18.040;2023-02-18T11:24:56;98508.19;;;12.22;78.41
49297;BME280;35163;48.878;18.040;2023-02-18T11:29:59;98500.53;;;12.19;77.91
49297;BME280;35163;48.878;18.040;2023-02-18T11:32:28;98492.63;;;12.22;77.99
49297;BME280;35163;48.878;18.040;2023-02-18T11:34:56;98492.75;;;12.19;77.52
49297;BME280;35163;48.878;18.040;2023-02-18T11:37:22;98486.59;;;12.21;78.45
49297;BME280;35163;48.878;18.040;2023-02-18T11:39:50;98480.47;;;12.24;77.64
49297;BME280;35163;48.878;18.040;2023-02-18T11:42:18;98467.84;;;12.14;77.17
49297;BME280;35163;48.878;18.040;2023-02-18T11:47:19;98465.34;;;12.11;77.30
49297;BME280;35163;48.878;18.040;2023-02-18T11:52:31;98468.97;;;12.06;77.76
49297;BME280;35163;48.878;18.040;2023-02-18T11:57:43;98455.28;;;12.02;78.59
49297;BME280;35163;48.878;18.040;2023-02-18T12:00:21;98457.00;;;12.03;78.39
49297;BME280;35163;48.878;18.040;2023-02-18T12:02:50;98439.84;;;11.99;78.83
49297;BME280;35163;48.878;18.040;2023-02-18T12:05:25;98427.88;;;11.96;79.00
49297;BME280;35163;48.878;18.040;2023-02-18T12:08:02;98418.31;;;11.98;78.71
49297;BME280;35163;48.878;18.040;2023-02-18T12:10:48;98434.47;;;12.05;78.94
49297;BME280;35163;48.878;18.040;2023-02-18T12:13:32;98425.56;;;12.12;78.74
49297;BME280;35163;48.878;18.040;2023-02-18T12:16:16;98416.91;;;12.13;78.71
49297;BME280;35163;48.878;18.040;2023-02-18T12:21:44;98420.28;;;12.15;79.03
49297;BME280;35163;48.878;18.040;2023-02-18T12:32:49;98397.63;;;12.21;79.80
49297;BME280;35163;48.878;18.040;2023-02-18T12:41:14;98374.91;;;12.27;79.67
49297;BME280;35163;48.878;18.040;2023-02-18T12:43:51;98360.19;;;12.28;79.86
49297;BME280;35163;48.878;18.040;2023-02-18T12:57:42;98337.34;;;12.15;80.40
49297;BME280;35163;48.878;18.040;2023-02-18T13:14:09;98308.66;;;12.20;80.06
49297;BME280;35163;48.878;18.040;2023-02-18T13:16:38;98301.66;;;12.22;80.03
49297;BME280;35163;48.878;18.040;2023-02-18T13:19:18;98311.91;;;12.25;79.91
49297;BME280;35163;48.878;18.040;2023-02-18T13:21:48;98293.81;;;12.24;80.54
49297;BME280;35163;48.878;18.040;2023-02-18T13:24:27;98325.06;;;12.21;81.09
49297;BME280;35163;48.878;18.040;2023-02-18T13:29:35;98287.84;;;12.22;81.70
49297;BME280;35163;48.878;18.040;2023-02-18T13:34:46;98286.09;;;12.22;81.66
49297;BME280;35163;48.878;18.040;2023-02-18T13:40:02;98278.44;;;12.19;81.96
49297;BME280;35163;48.878;18.040;2023-02-18T13:47:45;98259.78;;;12.32;81.89
49297;BME280;35163;48.878;18.040;2023-02-18T13:50:23;98258.91;;;12.33;81.66
49297;BME280;35163;48.878;18.040;2023-02-18T13:55:40;98250.34;;;12.31;81.48
49297;BME280;35163;48.878;18.040;2023-02-18T13:58:18;98241.72;;;12.30;81.55
49297;BME280;35163;48.878;18.040;2023-02-18T14:00:53;98233.88;;;12.32;81.44
49297;BME280;35163;48.878;18.040;2023-02-18T14:06:12;98242.56;;;12.31;81.26
49297;BME280;35163;48.878;18.040;2023-02-18T14:08:39;98230.50;;;12.30;81.93
49297;BME280;35163;48.878;18.040;2023-02-18T14:16:11;98232.91;;;12.34;80.88
49297;BME280;35163;48.878;18.040;2023-02-18T14:21:20;98222.41;;;12.37;80.76
49297;BME280;35163;48.878;18.040;2023-02-18T14:26:30;98202.38;;;12.41;80.74
49297;BME280;35163;48.878;18.040;2023-02-18T14:29:25;98192.19;;;12.36;80.80
49297;BME280;35163;48.878;18.040;2023-02-18T14:31:58;98187.06;;;12.35;80.89
49297;BME280;35163;48.878;18.040;2023-02-18T14:46:42;98175.75;;;12.37;80.30
49297;BME280;35163;48.878;18.040;2023-02-18T14:51:51;98183.66;;;12.34;80.35
49297;BME280;35163;48.878;18.040;2023-02-18T14:54:20;98183.00;;;12.29;80.61
49297;BME280;35163;48.878;18.040;2023-02-18T14:57:07;98184.69;;;12.30;80.41
49297;BME280;35163;48.878;18.040;2023-02-18T14:59:41;98180.41;;;12.29;80.38
49297;BME280;35163;48.878;18.040;2023-02-18T15:02:17;98173.34;;;12.33;80.20
49297;BME280;35163;48.878;18.040;2023-02-18T15:04:44;98183.00;;;12.29;80.35
49297;BME280;35163;48.878;18.040;2023-02-18T15:07:11;98196.69;;;12.33;79.98
49297;BME280;35163;48.878;18.040;2023-02-18T15:09:51;98182.34;;;12.24;80.15
49297;BME280;35163;48.878;18.040;2023-02-18T15:12:21;98178.19;;;12.20;80.37
49297;BME280;35163;48.878;18.040;2023-02-18T15:14:52;98177.41;;;12.18;80.62
49297;BME280;35163;48.878;18.040;2023-02-18T15:17:22;98167.84;;;12.20;80.28
49297;BME280;35163;48.878;18.040;2023-02-18T15:19:55;98177.25;;;12.22;79.56
49297;BME280;35163;48.878;18.040;2023-02-18T15:22:26;98177.03;;;12.27;79.10
49297;BME280;35163;48.878;18.040;2023-02-18T15:24:56;98165.88;;;12.25;78.76
49297;BME280;35163;48.878;18.040;2023-02-18T15:27:26;98174.50;;;12.25;78.03
49297;BME280;35163;48.878;18.040;2023-02-18T15:32:48;98161.69;;;12.22;77.00